Terminal Aerodrome Forecast
Issued by NWS

Home | Current Version | Previous Version | Text Only | Print | Product List | Glossary On
Versions: 1 2 3 4 5 6 7 8 9 10 11 12 13 14 15 16 17 18 19 20 21 22 23 24 25 26 27 28 29 30
000
FTUS41 KBOX 011121
TAFFMH
TAF
KFMH 011121Z 0112/0212 21004KT P6SM SCT250
     FM011700 19008KT P6SM SCT050 BKN200
     FM020000 18004KT P6SM BKN150=

USA.gov is the U.S. government's official web portal to all federal, state and local government web resources and services.